AKT2801 CYCG-CYEG
Flight info
| Callsign | AKT2801 |
|---|---|
| Flight time | 0h 43m |
| Altitude | 38000 |
| Route | CYGE/N0454F370 DCT ELLKS ELLKS3 |
| Aircraft | B737/M-SDE2E3FGHIRWXY/LB1 |
Departure
| Time | 2026-04-25 02:28 |
|---|---|
| Airport | Castlegar/West Kootenay Regional Airport (CYCG) |
Arrival
| Time | 2026-04-25 03:11 |
|---|---|
| Airport | Edmonton International Airport (CYEG) |
| Time | Latitude | Longitude | Altitude | Speed | Heading |
|---|---|---|---|---|---|
| 2026-04-25 02:11 | 49.30043 | -117.63581 | 1624 ft | 0 kts | 303° |
| 2026-04-25 02:19 | 49.30034 | -117.63563 | 1629 ft | 4 kts | 324° |
| 2026-04-25 02:20 | 49.30010 | -117.63553 | 1628 ft | 4 kts | 3° |
| 2026-04-25 02:20 | 49.30009 | -117.63553 | 1627 ft | 0 kts | 3° |
| 2026-04-25 02:22 | 49.30017 | -117.63552 | 1626 ft | 3 kts | 3° |
| 2026-04-25 02:22 | 49.30053 | -117.63556 | 1625 ft | 7 kts | 357° |
| 2026-04-25 02:23 | 49.30097 | -117.63509 | 1629 ft | 8 kts | 69° |
| 2026-04-25 02:23 | 49.30098 | -117.63422 | 1628 ft | 8 kts | 116° |
| 2026-04-25 02:23 | 49.30051 | -117.63381 | 1626 ft | 8 kts | 166° |
| 2026-04-25 02:23 | 49.29997 | -117.63365 | 1633 ft | 8 kts | 168° |
| 2026-04-25 02:24 | 49.29945 | -117.63349 | 1627 ft | 7 kts | 168° |
| 2026-04-25 02:24 | 49.29895 | -117.63333 | 1629 ft | 7 kts | 169° |
| 2026-04-25 02:24 | 49.29847 | -117.63318 | 1631 ft | 7 kts | 167° |
| 2026-04-25 02:24 | 49.29799 | -117.63304 | 1631 ft | 7 kts | 172° |
| 2026-04-25 02:25 | 49.29741 | -117.63290 | 1631 ft | 10 kts | 169° |
| 2026-04-25 02:25 | 49.29656 | -117.63265 | 1632 ft | 13 kts | 168° |
| 2026-04-25 02:25 | 49.29560 | -117.63236 | 1631 ft | 15 kts | 170° |
| 2026-04-25 02:25 | 49.29452 | -117.63203 | 1628 ft | 17 kts | 169° |
| 2026-04-25 02:26 | 49.29337 | -117.63167 | 1628 ft | 16 kts | 168° |
| 2026-04-25 02:26 | 49.29228 | -117.63133 | 1627 ft | 16 kts | 169° |
| 2026-04-25 02:26 | 49.29116 | -117.63099 | 1627 ft | 16 kts | 169° |
| 2026-04-25 02:26 | 49.29010 | -117.63056 | 1628 ft | 15 kts | 152° |
| 2026-04-25 02:27 | 49.28939 | -117.63011 | 1625 ft | 6 kts | 188° |
| 2026-04-25 02:27 | 49.28945 | -117.63049 | 1629 ft | 4 kts | 325° |
| 2026-04-25 02:27 | 49.28957 | -117.63054 | 1625 ft | 0 kts | 349° |
| 2026-04-25 02:28 | 49.29048 | -117.63082 | 1624 ft | 49 kts | 348° |
| 2026-04-25 02:28 | 49.29654 | -117.63264 | 1632 ft | 126 kts | 349° |
| 2026-04-25 02:28 | 49.30701 | -117.63597 | 1933 ft | 164 kts | 347° |
| 2026-04-25 02:28 | 49.31744 | -117.64176 | 3077 ft | 156 kts | 341° |
| 2026-04-25 02:29 | 49.32812 | -117.64737 | 3735 ft | 175 kts | 342° |
| 2026-04-25 02:29 | 49.34082 | -117.65355 | 4138 ft | 208 kts | 343° |
| 2026-04-25 02:29 | 49.35584 | -117.65954 | 4492 ft | 234 kts | 351° |
| 2026-04-25 02:29 | 49.37262 | -117.66077 | 4938 ft | 254 kts | 9° |
| 2026-04-25 02:30 | 49.38942 | -117.65096 | 5865 ft | 263 kts | 29° |
| 2026-04-25 02:30 | 49.40503 | -117.63702 | 7223 ft | 256 kts | 28° |
| 2026-04-25 02:30 | 49.42106 | -117.62410 | 7797 ft | 258 kts | 25° |
| 2026-04-25 02:30 | 49.43722 | -117.61301 | 8013 ft | 261 kts | 21° |
| 2026-04-25 02:31 | 49.45450 | -117.60285 | 8011 ft | 265 kts | 19° |
| 2026-04-25 02:31 | 49.47210 | -117.59380 | 8114 ft | 266 kts | 17° |
| 2026-04-25 02:31 | 49.48990 | -117.58565 | 8896 ft | 267 kts | 15° |
| 2026-04-25 02:31 | 49.50791 | -117.57808 | 9986 ft | 270 kts | 14° |
| 2026-04-25 02:32 | 49.52630 | -117.57087 | 10700 ft | 285 kts | 13° |
| 2026-04-25 02:32 | 49.54671 | -117.56327 | 10971 ft | 314 kts | 13° |
| 2026-04-25 02:32 | 49.56888 | -117.55538 | 11477 ft | 333 kts | 12° |
| 2026-04-25 02:32 | 49.59165 | -117.54755 | 12379 ft | 337 kts | 12° |
| 2026-04-25 02:33 | 49.61467 | -117.53984 | 13352 ft | 341 kts | 12° |
| 2026-04-25 02:33 | 49.63788 | -117.53218 | 14230 ft | 346 kts | 11° |
| 2026-04-25 02:33 | 49.66179 | -117.52439 | 15108 ft | 349 kts | 11° |
| 2026-04-25 02:33 | 49.68579 | -117.51664 | 15980 ft | 352 kts | 11° |
| 2026-04-25 02:34 | 49.70969 | -117.50896 | 16794 ft | 357 kts | 11° |
| 2026-04-25 02:34 | 49.73425 | -117.50102 | 17596 ft | 362 kts | 11° |
| 2026-04-25 02:34 | 49.75923 | -117.49300 | 18377 ft | 367 kts | 11° |
| 2026-04-25 02:34 | 49.78422 | -117.48498 | 19057 ft | 371 kts | 11° |
| 2026-04-25 02:35 | 49.80970 | -117.47680 | 19763 ft | 375 kts | 11° |
| 2026-04-25 02:35 | 49.83516 | -117.46862 | 20440 ft | 379 kts | 11° |
| 2026-04-25 02:35 | 49.86127 | -117.46021 | 21109 ft | 383 kts | 11° |
| 2026-04-25 02:35 | 49.88759 | -117.45175 | 21758 ft | 386 kts | 11° |
| 2026-04-25 02:36 | 49.91392 | -117.44334 | 22330 ft | 391 kts | 11° |
| 2026-04-25 02:36 | 49.93172 | -117.43770 | 22700 ft | 394 kts | 11° |
| 2026-04-25 02:36 | 49.96777 | -117.42601 | 23504 ft | 400 kts | 11° |
| 2026-04-25 02:36 | 49.98597 | -117.42006 | 23904 ft | 402 kts | 11° |
| 2026-04-25 02:37 | 50.01323 | -117.41117 | 24533 ft | 401 kts | 11° |
| 2026-04-25 02:37 | 50.04082 | -117.40216 | 25119 ft | 403 kts | 11° |
| 2026-04-25 02:37 | 50.06818 | -117.39325 | 25578 ft | 407 kts | 11° |
| 2026-04-25 02:37 | 50.09618 | -117.38414 | 26060 ft | 410 kts | 11° |
| 2026-04-25 02:38 | 50.12404 | -117.37504 | 26571 ft | 412 kts | 11° |
| 2026-04-25 02:38 | 50.15199 | -117.36592 | 27082 ft | 414 kts | 11° |
| 2026-04-25 02:38 | 50.18047 | -117.35660 | 27521 ft | 417 kts | 11° |
| 2026-04-25 02:38 | 50.20880 | -117.34735 | 27967 ft | 420 kts | 11° |
| 2026-04-25 02:39 | 50.23757 | -117.33796 | 28413 ft | 422 kts | 12° |
| 2026-04-25 02:39 | 50.26655 | -117.32848 | 28813 ft | 425 kts | 12° |
| 2026-04-25 02:39 | 50.29572 | -117.31889 | 29303 ft | 427 kts | 12° |
| 2026-04-25 02:39 | 50.32456 | -117.30940 | 29714 ft | 429 kts | 12° |
| 2026-04-25 02:40 | 50.35414 | -117.29968 | 30102 ft | 432 kts | 12° |
| 2026-04-25 02:40 | 50.38311 | -117.29013 | 30769 ft | 425 kts | 12° |
| 2026-04-25 02:40 | 50.41223 | -117.28053 | 31265 ft | 424 kts | 12° |
| 2026-04-25 02:40 | 50.44096 | -117.27105 | 31500 ft | 429 kts | 12° |
| 2026-04-25 02:41 | 50.47045 | -117.26130 | 31806 ft | 430 kts | 12° |
| 2026-04-25 02:41 | 50.49988 | -117.25157 | 32153 ft | 432 kts | 12° |
| 2026-04-25 02:41 | 50.52911 | -117.24188 | 32472 ft | 433 kts | 12° |
| 2026-04-25 02:41 | 50.55865 | -117.23207 | 32867 ft | 433 kts | 12° |
| 2026-04-25 02:42 | 50.58783 | -117.22239 | 33253 ft | 432 kts | 12° |
| 2026-04-25 02:42 | 50.61752 | -117.21251 | 33601 ft | 433 kts | 12° |
| 2026-04-25 02:42 | 50.64712 | -117.20264 | 33907 ft | 434 kts | 12° |
| 2026-04-25 02:42 | 50.67678 | -117.19275 | 34231 ft | 434 kts | 12° |
| 2026-04-25 02:43 | 50.72225 | -117.17756 | 34633 ft | 435 kts | 12° |
| 2026-04-25 02:43 | 50.84045 | -117.13790 | 35908 ft | 432 kts | 12° |
| 2026-04-25 02:43 | 50.95848 | -117.09818 | 36615 ft | 439 kts | 12° |
| 2026-04-25 02:43 | 51.07852 | -117.05750 | 37576 ft | 439 kts | 11° |
| 2026-04-25 02:44 | 51.19947 | -117.01626 | 38248 ft | 445 kts | 11° |
| 2026-04-25 02:44 | 51.31941 | -116.96413 | 38205 ft | 459 kts | 27° |
| 2026-04-25 02:44 | 51.42420 | -116.84427 | 38205 ft | 459 kts | 34° |
| 2026-04-25 02:45 | 51.63036 | -116.61457 | 38162 ft | 444 kts | 33° |
| 2026-04-25 02:45 | 51.82951 | -116.39016 | 38239 ft | 429 kts | 33° |
| 2026-04-25 02:46 | 52.02434 | -116.16874 | 38299 ft | 429 kts | 33° |
| 2026-04-25 02:46 | 52.22281 | -115.93999 | 38274 ft | 444 kts | 34° |
| 2026-04-25 02:47 | 52.42505 | -115.70465 | 38173 ft | 444 kts | 34° |
| 2026-04-25 02:47 | 52.53937 | -115.57044 | 38180 ft | 439 kts | 34° |
| 2026-04-25 02:47 | 52.56434 | -115.54098 | 38016 ft | 441 kts | 34° |
| 2026-04-25 02:48 | 52.58950 | -115.51129 | 37441 ft | 443 kts | 34° |
| 2026-04-25 02:48 | 52.61429 | -115.48195 | 36806 ft | 440 kts | 34° |
| 2026-04-25 02:48 | 52.63911 | -115.45255 | 36166 ft | 438 kts | 34° |
| 2026-04-25 02:48 | 52.66371 | -115.42338 | 35425 ft | 438 kts | 34° |
| 2026-04-25 02:49 | 52.68856 | -115.39387 | 34687 ft | 437 kts | 34° |
| 2026-04-25 02:49 | 52.71288 | -115.36495 | 34147 ft | 431 kts | 34° |
| 2026-04-25 02:49 | 52.73723 | -115.33594 | 33097 ft | 432 kts | 34° |
| 2026-04-25 02:49 | 52.76152 | -115.30697 | 32440 ft | 427 kts | 34° |
| 2026-04-25 02:50 | 52.78543 | -115.27840 | 31755 ft | 422 kts | 34° |
| 2026-04-25 02:50 | 52.80881 | -115.25044 | 31240 ft | 415 kts | 34° |
| 2026-04-25 02:50 | 52.83218 | -115.22244 | 30650 ft | 411 kts | 34° |
| 2026-04-25 02:50 | 52.85529 | -115.19473 | 30060 ft | 405 kts | 34° |
| 2026-04-25 02:51 | 52.87774 | -115.16776 | 29485 ft | 399 kts | 34° |
| 2026-04-25 02:51 | 52.90011 | -115.14086 | 28919 ft | 392 kts | 34° |
| 2026-04-25 02:51 | 52.92206 | -115.11443 | 28373 ft | 386 kts | 34° |
| 2026-04-25 02:51 | 52.94357 | -115.08849 | 27789 ft | 382 kts | 34° |
| 2026-04-25 02:52 | 52.96499 | -115.06264 | 27312 ft | 376 kts | 34° |
| 2026-04-25 02:52 | 52.98599 | -115.03726 | 26774 ft | 372 kts | 34° |
| 2026-04-25 02:52 | 53.00668 | -115.01223 | 26229 ft | 369 kts | 34° |
| 2026-04-25 02:52 | 53.02750 | -114.98701 | 25714 ft | 365 kts | 34° |
| 2026-04-25 02:53 | 53.04779 | -114.96241 | 25190 ft | 362 kts | 34° |
| 2026-04-25 02:53 | 53.06795 | -114.93793 | 24676 ft | 360 kts | 34° |
| 2026-04-25 02:53 | 53.08817 | -114.91334 | 24162 ft | 358 kts | 34° |
| 2026-04-25 02:53 | 53.10826 | -114.88888 | 23617 ft | 356 kts | 34° |
| 2026-04-25 02:54 | 53.12816 | -114.86464 | 23030 ft | 353 kts | 34° |
| 2026-04-25 02:54 | 53.14790 | -114.84055 | 22516 ft | 349 kts | 34° |
| 2026-04-25 02:54 | 53.16744 | -114.81668 | 22005 ft | 345 kts | 34° |
| 2026-04-25 02:54 | 53.18652 | -114.79334 | 21516 ft | 341 kts | 34° |
| 2026-04-25 02:55 | 53.20475 | -114.77103 | 20183 ft | 339 kts | 36° |
| 2026-04-25 02:55 | 53.22397 | -114.74748 | 19959 ft | 347 kts | 36° |
| 2026-04-25 02:55 | 53.24418 | -114.72269 | 20614 ft | 374 kts | 36° |
| 2026-04-25 02:55 | 53.26278 | -114.69225 | 20369 ft | 378 kts | 53° |
| 2026-04-25 02:56 | 53.27378 | -114.65292 | 20298 ft | 371 kts | 71° |
| 2026-04-25 02:56 | 53.27701 | -114.61038 | 20081 ft | 362 kts | 82° |
| 2026-04-25 02:56 | 53.27799 | -114.56889 | 19580 ft | 359 kts | 84° |
| 2026-04-25 02:56 | 53.27859 | -114.52743 | 18996 ft | 359 kts | 84° |
| 2026-04-25 02:57 | 53.27918 | -114.48550 | 18461 ft | 357 kts | 84° |
| 2026-04-25 02:57 | 53.27985 | -114.44417 | 17897 ft | 353 kts | 83° |
| 2026-04-25 02:57 | 53.28059 | -114.40382 | 17382 ft | 348 kts | 83° |
| 2026-04-25 02:57 | 53.28139 | -114.36336 | 16844 ft | 345 kts | 82° |
| 2026-04-25 02:58 | 53.28221 | -114.32375 | 16319 ft | 341 kts | 82° |
| 2026-04-25 02:58 | 53.28304 | -114.28401 | 15802 ft | 337 kts | 82° |
| 2026-04-25 02:58 | 53.28386 | -114.24478 | 15309 ft | 334 kts | 81° |
| 2026-04-25 02:58 | 53.28466 | -114.20614 | 14726 ft | 334 kts | 81° |
| 2026-04-25 02:59 | 53.28544 | -114.16772 | 14260 ft | 330 kts | 81° |
| 2026-04-25 02:59 | 53.28622 | -114.12931 | 13775 ft | 325 kts | 80° |
| 2026-04-25 02:59 | 53.28695 | -114.09205 | 13200 ft | 323 kts | 81° |
| 2026-04-25 02:59 | 53.28768 | -114.05441 | 12598 ft | 322 kts | 81° |
| 2026-04-25 03:00 | 53.28847 | -114.01684 | 12022 ft | 320 kts | 80° |
| 2026-04-25 03:00 | 53.28980 | -113.98026 | 11597 ft | 315 kts | 79° |
| 2026-04-25 03:00 | 53.29136 | -113.94353 | 11184 ft | 313 kts | 79° |
| 2026-04-25 03:00 | 53.29282 | -113.90780 | 10801 ft | 308 kts | 79° |
| 2026-04-25 03:01 | 53.29421 | -113.87212 | 10419 ft | 304 kts | 79° |
| 2026-04-25 03:01 | 53.29552 | -113.83731 | 10053 ft | 300 kts | 79° |
| 2026-04-25 03:01 | 53.29603 | -113.80272 | 9945 ft | 292 kts | 90° |
| 2026-04-25 03:01 | 53.28956 | -113.77118 | 9888 ft | 287 kts | 114° |
| 2026-04-25 03:02 | 53.27697 | -113.74494 | 9452 ft | 289 kts | 129° |
| 2026-04-25 03:02 | 53.26269 | -113.72153 | 8884 ft | 290 kts | 130° |
| 2026-04-25 03:02 | 53.24822 | -113.69796 | 8335 ft | 289 kts | 130° |
| 2026-04-25 03:02 | 53.23379 | -113.67427 | 7974 ft | 289 kts | 129° |
| 2026-04-25 03:03 | 53.21937 | -113.65042 | 7629 ft | 291 kts | 128° |
| 2026-04-25 03:03 | 53.20518 | -113.62677 | 7316 ft | 289 kts | 128° |
| 2026-04-25 03:03 | 53.19109 | -113.60327 | 7011 ft | 287 kts | 128° |
| 2026-04-25 03:03 | 53.17697 | -113.57972 | 6790 ft | 282 kts | 128° |
| 2026-04-25 03:04 | 53.16316 | -113.55671 | 6598 ft | 277 kts | 127° |
| 2026-04-25 03:04 | 53.14971 | -113.53434 | 6371 ft | 273 kts | 127° |
| 2026-04-25 03:04 | 53.13630 | -113.51205 | 6163 ft | 268 kts | 128° |
| 2026-04-25 03:05 | 53.12026 | -113.46346 | 5809 ft | 216 kts | 77° |
| 2026-04-25 03:05 | 53.12255 | -113.44021 | 5642 ft | 192 kts | 60° |
| 2026-04-25 03:05 | 53.12776 | -113.42134 | 5549 ft | 170 kts | 44° |
| 2026-04-25 03:05 | 53.13533 | -113.40730 | 5425 ft | 160 kts | 36° |
| 2026-04-25 03:06 | 53.14315 | -113.39411 | 5348 ft | 160 kts | 35° |
| 2026-04-25 03:06 | 53.15116 | -113.38095 | 5244 ft | 159 kts | 28° |
| 2026-04-25 03:06 | 53.16104 | -113.37542 | 5159 ft | 151 kts | 0° |
| 2026-04-25 03:06 | 53.17141 | -113.37795 | 5107 ft | 151 kts | 340° |
| 2026-04-25 03:07 | 53.18014 | -113.38727 | 5099 ft | 151 kts | 326° |
| 2026-04-25 03:07 | 53.18815 | -113.39879 | 5092 ft | 152 kts | 324° |
| 2026-04-25 03:07 | 53.19584 | -113.41087 | 5076 ft | 153 kts | 323° |
| 2026-04-25 03:07 | 53.20304 | -113.42276 | 4997 ft | 138 kts | 323° |
| 2026-04-25 03:08 | 53.20958 | -113.43370 | 4827 ft | 127 kts | 323° |
| 2026-04-25 03:08 | 53.21573 | -113.44397 | 4584 ft | 125 kts | 322° |
| 2026-04-25 03:08 | 53.22193 | -113.45435 | 4420 ft | 125 kts | 322° |
| 2026-04-25 03:08 | 53.22800 | -113.46453 | 4232 ft | 124 kts | 322° |
| 2026-04-25 03:09 | 53.23396 | -113.47454 | 4049 ft | 119 kts | 322° |
| 2026-04-25 03:09 | 53.23970 | -113.48417 | 3880 ft | 116 kts | 322° |
| 2026-04-25 03:09 | 53.24539 | -113.49370 | 3724 ft | 119 kts | 321° |
| 2026-04-25 03:09 | 53.25131 | -113.50361 | 3555 ft | 120 kts | 320° |
| 2026-04-25 03:10 | 53.25726 | -113.51359 | 3358 ft | 120 kts | 320° |
| 2026-04-25 03:10 | 53.26322 | -113.52362 | 3103 ft | 124 kts | 319° |
| 2026-04-25 03:10 | 53.26933 | -113.53406 | 2904 ft | 128 kts | 322° |
| 2026-04-25 03:10 | 53.27577 | -113.54463 | 2732 ft | 129 kts | 321° |
| 2026-04-25 03:11 | 53.28204 | -113.55515 | 2566 ft | 124 kts | 322° |
| 2026-04-25 03:11 | 53.28784 | -113.56488 | 2392 ft | 113 kts | 320° |
| 2026-04-25 03:11 | 53.29226 | -113.57232 | 2386 ft | 58 kts | 314° |
| 2026-04-25 03:11 | 53.29442 | -113.57590 | 2380 ft | 38 kts | 316° |
| 2026-04-25 03:12 | 53.29608 | -113.57866 | 2381 ft | 30 kts | 315° |
| 2026-04-25 03:12 | 53.29750 | -113.58106 | 2385 ft | 28 kts | 316° |
| 2026-04-25 03:12 | 53.29923 | -113.58204 | 2385 ft | 25 kts | 0° |
| 2026-04-25 03:12 | 53.30087 | -113.58212 | 2383 ft | 23 kts | 341° |
| 2026-04-25 03:13 | 53.30167 | -113.58325 | 2386 ft | 23 kts | 315° |
| 2026-04-25 03:13 | 53.30277 | -113.58508 | 2386 ft | 22 kts | 315° |
| 2026-04-25 03:13 | 53.30417 | -113.58743 | 2383 ft | 21 kts | 314° |
| 2026-04-25 03:13 | 53.30494 | -113.58843 | 2383 ft | 21 kts | 347° |
| 2026-04-25 03:14 | 53.30631 | -113.58867 | 2383 ft | 20 kts | 356° |
| 2026-04-25 03:14 | 53.30770 | -113.58880 | 2386 ft | 19 kts | 358° |
| 2026-04-25 03:14 | 53.30865 | -113.58806 | 2388 ft | 14 kts | 41° |
| 2026-04-25 03:14 | 53.30931 | -113.58799 | 2385 ft | 0 kts | 358° |
| 2026-04-25 03:16 | 53.30938 | -113.58799 | 2383 ft | 3 kts | 1° |
| 2026-04-25 03:16 | 53.30968 | -113.58799 | 2383 ft | 6 kts | 356° |
| 2026-04-25 03:16 | 53.31013 | -113.58791 | 2383 ft | 7 kts | 40° |
| 2026-04-25 03:16 | 53.31011 | -113.58715 | 2383 ft | 7 kts | 114° |
| 2026-04-25 03:17 | 53.31003 | -113.58686 | 2383 ft | 0 kts | 112° |